Ellen Essberger — CQLS — position and weather

sailwx.info

Track history (hours):
 
Tides and Currents Weather Stations Pressure Air Temp Water Temp Dewpoint Dewpoint Depression Visibility Wind Speed Wind Dir Waves Ship Positions

Ellen Essberger

Last reported at 2017-Sep-22 02:00 UTC. Time now 2017-Sep-23 16:30 UTC.
Position N 48°56' W 005°09'.

Length 118 m; draft 6.9 m.

Type: Ship (hazmat cat B). MMSI: 255805340.

Date/timePositionNaut miles runAvg speedWind from/ knotsBaromVisibWave heightAir tempDewpointWater temp
2017-Sep-22 02:00N 48°56' W 005°09'612.6
2017-Sep-22 01:30N 48°53' W 005°17'612.1
2017-Sep-22 01:00N 48°50' W 005°25'611.4
2017-Sep-22 00:30N 48°47' W 005°33'154 8.7
2017-Sep-21 06:46N 46°21' W 004°20'311.8
2017-Sep-21 06:30N 46°20' W 004°16'611.6
2017-Sep-21 06:00N 46°16' W 004°09'611.7
2017-Sep-21 05:30N 46°13' W 004°02'811.5
2017-Sep-21 04:49N 46°08' W 003°53'411.4
2017-Sep-21 04:30N 46°06' W 003°49'711.4
2017-Sep-21 03:55N 46°02' W 003°41'511.3
2017-Sep-21 03:28N 45°59' W 003°35'611.3
2017-Sep-21 02:58N 45°56' W 003°29'511.3
2017-Sep-21 02:30N 45°53' W 003°23'611.3
2017-Sep-21 01:56N 45°49' W 003°15'510.5
2017-Sep-21 01:30N 45°47' W 003°09'1211.4
2017-Sep-21 00:27N 45°51' W 002°53'511.0
2017-Sep-20 23:59N 45°54' W 002°46'1211.4
2017-Sep-20 22:57N 45°57' W 002°30'611.6
2017-Sep-20 22:27N 45°59' W 002°22'1412.3
2017-Sep-20 21:17N 46°03' W 002°02'312.2
2017-Sep-20 21:00N 46°04' W 001°58'612.6
2017-Sep-20 20:30N 46°06' W 001°49'612.7
2017-Sep-20 20:00N 46°08' W 001°40'813.3
2017-Sep-20 19:25N 46°07' W 001°29'613.7
2017-Sep-20 19:00N 46°06' W 001°21'4 8.1
2017-Sep-20 18:30N 46°07' W 001°15'2 4.4
2017-Sep-20 17:59N 46°09' W 001°14'0 0.0
2017-Sep-20 17:29N 46°09' W 001°14'0 0.0
2017-Sep-20 16:59N 46°09' W 001°14'0 0.0
2017-Sep-20 16:29N 46°09' W 001°14'0 0.0
2017-Sep-20 15:59N 46°09' W 001°14'0 0.0
2017-Sep-20 15:29N 46°09' W 001°14'0 0.0
2017-Sep-20 14:59N 46°09' W 001°14'0 0.0
2017-Sep-20 13:59N 46°09' W 001°14'0 0.0
2017-Sep-20 13:26N 46°09' W 001°14'0 0.0
2017-Sep-20 12:59N 46°09' W 001°14'0 0.0
2017-Sep-20 12:29N 46°09' W 001°14'0 0.0
2017-Sep-20 11:56N 46°09' W 001°14'0 0.0
2017-Sep-20 11:29N 46°09' W 001°14'0 0.0
2017-Sep-20 10:59N 46°09' W 001°14'0 0.0
2017-Sep-20 10:29N 46°09' W 001°14'0 0.0
2017-Sep-20 09:59N 46°09' W 001°14'0 0.0
2017-Sep-20 09:29N 46°09' W 001°14'0 0.0
2017-Sep-20 08:59N 46°09' W 001°14'0 0.0
2017-Sep-20 08:29N 46°09' W 001°14'0 0.0
2017-Sep-20 07:59N 46°09' W 001°14'0 0.0
2017-Sep-20 07:29N 46°09' W 001°14'0 0.0
2017-Sep-20 06:59N 46°09' W 001°14'0 0.0
2017-Sep-20 06:31N 46°09' W 001°14'1 1.8
2017-Sep-20 06:01N 46°09' W 001°15'4 7.5
2017-Sep-20 05:30N 46°06' W 001°18'611.2
2017-Sep-20 05:01N 46°06' W 001°26'611.6
2017-Sep-20 04:31N 46°07' W 001°35'611.2
2017-Sep-20 03:57N 46°08' W 001°44'611.6
2017-Sep-20 03:29N 46°06' W 001°51'1811.9
2017-Sep-20 01:58N 45°60' W 002°16'911.9
2017-Sep-20 01:13N 45°57' W 002°28'211.9
2017-Sep-20 01:00N 45°56' W 002°31'612.0
2017-Sep-20 00:31N 45°54' W 002°39'1412.4
2017-Sep-19 23:24N 45°50' W 002°58'49110.1
2017-Sep-17 22:35N 39°27' W 009°57'112.1
2017-Sep-17 22:30N 39°26' W 009°57'612.3
2017-Sep-17 22:00N 39°20' W 009°57'612.1
2017-Sep-17 21:30N 39°14' W 009°57'612.0
2017-Sep-17 21:00N 39°08' W 009°57'611.9
2017-Sep-17 20:30N 39°02' W 009°57'611.7
2017-Sep-17 20:00N 38°56' W 009°57'611.8
2017-Sep-17 19:30N 38°50' W 009°57'611.9
2017-Sep-17 19:00N 38°44' W 009°57'611.2
2017-Sep-17 18:30N 38°39' W 009°56'611.2
2017-Sep-17 18:01N 38°33' W 009°54'611.3
2017-Sep-17 17:30N 38°28' W 009°53'611.4
2017-Sep-17 17:00N 38°22' W 009°51'611.5
2017-Sep-17 16:30N 38°16' W 009°49'611.6
2017-Sep-17 16:01N 38°11' W 009°48'611.7
2017-Sep-17 15:31N 38°05' W 009°46'711.5
2017-Sep-17 14:55N 37°59' W 009°44'611.5
2017-Sep-17 14:26N 37°53' W 009°43'511.0
2017-Sep-17 14:00N 37°49' W 009°41'610.7
2017-Sep-17 13:29N 37°43' W 009°40'811.0
2017-Sep-17 12:48N 37°36' W 009°37'6310.6
2017-Sep-17 06:48N 36°39' W 009°03'511.3
2017-Sep-17 06:20N 36°37' W 008°57'3011.8
2017-Sep-17 03:45N 36°30' W 008°20'812.6
2017-Sep-17 03:06N 36°28' W 008°10'111.9
2017-Sep-17 02:59N 36°27' W 008°08'1112.4
2017-Sep-17 02:07N 36°25' W 007°55'212.6
2017-Sep-17 01:56N 36°24' W 007°53'4811.5
2017-Sep-16 21:47N 36°41' W 006°57'2312.5
2017-Sep-16 19:56N 37°04' W 006°50'  
2017-Sep-13 11:16N 36°21' W 007°26'312.6
2017-Sep-13 11:00N 36°19' W 007°29'1411.0
2017-Sep-13 09:42N 36°16' W 007°47'512.3
2017-Sep-13 09:20N 36°17' W 007°52'412.1
2017-Sep-13 09:00N 36°18' W 007°57'612.3
2017-Sep-13 08:30N 36°20' W 008°05'612.4
2017-Sep-13 08:00N 36°21' W 008°12'912.5
2017-Sep-13 07:19N 36°23' W 008°22'412.7
2017-Sep-13 07:00N 36°24' W 008°27'612.8
2017-Sep-13 06:30N 36°26' W 008°35'612.5
2017-Sep-13 06:00N 36°27' W 008°42'612.6
2017-Sep-13 05:30N 36°29' W 008°50'612.4
2017-Sep-13 05:00N 36°30' W 008°58'612.4
2017-Sep-13 04:30N 36°32' W 009°05'611.9
2017-Sep-13 04:00N 36°33' W 009°12'611.4
2017-Sep-13 03:30N 36°35' W 009°19'612.0
2017-Sep-13 03:00N 36°40' W 009°24'612.4
2017-Sep-13 02:29N 36°44' W 009°30'611.9
2017-Sep-13 01:59N 36°49' W 009°34'612.5
2017-Sep-13 01:30N 36°55' W 009°35'612.6
2017-Sep-13 01:00N 37°01' W 009°37'712.4
2017-Sep-13 00:24N 37°09' W 009°39'1112.5
2017-Sep-12 23:32N 37°19' W 009°42'213.3
2017-Sep-12 23:25N 37°21' W 009°43'613.2
2017-Sep-12 22:59N 37°26' W 009°44'812.8
2017-Sep-12 22:23N 37°34' W 009°46'512.6
2017-Sep-12 22:00N 37°39' W 009°48'612.4
2017-Sep-12 21:30N 37°45' W 009°49'612.2
2017-Sep-12 21:00N 37°51' W 009°51'712.1
2017-Sep-12 20:26N 37°57' W 009°53'612.3
2017-Sep-12 19:55N 38°04' W 009°55'612.5
2017-Sep-12 19:25N 38°10' W 009°57'512.7
2017-Sep-12 19:00N 38°15' W 009°58'612.5
2017-Sep-12 18:30N 38°21' W 009°60'612.9
2017-Sep-12 18:00N 38°27' W 010°02'713.3
2017-Sep-12 17:30N 38°33' W 010°04'713.2
2017-Sep-12 17:00N 38°40' W 010°05'713.0
2017-Sep-12 16:30N 38°46' W 010°06'713.3
2017-Sep-12 16:00N 38°53' W 010°06'612.6
2017-Sep-12 15:30N 38°59' W 010°06'612.6
2017-Sep-12 15:00N 39°06' W 010°06'713.1
2017-Sep-12 14:30N 39°12' W 010°06'713.6
2017-Sep-12 14:00N 39°19' W 010°06'713.2
2017-Sep-12 13:30N 39°26' W 010°06'  
Track history (hours):
 
Tides and Currents Weather Stations Pressure Air Temp Water Temp Dewpoint Dewpoint Depression Visibility Wind Speed Wind Dir Waves Ship Positions

Ellen Essberger

Last reported at 2017-Sep-22 02:00 UTC. Time now 2017-Sep-23 16:30 UTC.
Position N 48°56' W 005°09'.

Length 118 m; draft 6.9 m.

Type: Ship (hazmat cat B). MMSI: 255805340.

Date/timePositionNaut miles runAvg speedWind from/ knotsBaromVisibWave heightAir tempDewpointWater temp
2017-Sep-22 02:00N 48°56' W 005°09'612.6
2017-Sep-22 01:30N 48°53' W 005°17'612.1
2017-Sep-22 01:00N 48°50' W 005°25'611.4
2017-Sep-22 00:30N 48°47' W 005°33'154 8.7
2017-Sep-21 06:46N 46°21' W 004°20'311.8
2017-Sep-21 06:30N 46°20' W 004°16'611.6
2017-Sep-21 06:00N 46°16' W 004°09'611.7
2017-Sep-21 05:30N 46°13' W 004°02'811.5
2017-Sep-21 04:49N 46°08' W 003°53'411.4
2017-Sep-21 04:30N 46°06' W 003°49'711.4
2017-Sep-21 03:55N 46°02' W 003°41'511.3
2017-Sep-21 03:28N 45°59' W 003°35'611.3
2017-Sep-21 02:58N 45°56' W 003°29'511.3
2017-Sep-21 02:30N 45°53' W 003°23'611.3
2017-Sep-21 01:56N 45°49' W 003°15'510.5
2017-Sep-21 01:30N 45°47' W 003°09'1211.4
2017-Sep-21 00:27N 45°51' W 002°53'511.0
2017-Sep-20 23:59N 45°54' W 002°46'1211.4
2017-Sep-20 22:57N 45°57' W 002°30'611.6
2017-Sep-20 22:27N 45°59' W 002°22'1412.3
2017-Sep-20 21:17N 46°03' W 002°02'312.2
2017-Sep-20 21:00N 46°04' W 001°58'612.6
2017-Sep-20 20:30N 46°06' W 001°49'612.7
2017-Sep-20 20:00N 46°08' W 001°40'813.3
2017-Sep-20 19:25N 46°07' W 001°29'613.7
2017-Sep-20 19:00N 46°06' W 001°21'4 8.1
2017-Sep-20 18:30N 46°07' W 001°15'2 4.4
2017-Sep-20 17:59N 46°09' W 001°14'0 0.0
2017-Sep-20 17:29N 46°09' W 001°14'0 0.0
2017-Sep-20 16:59N 46°09' W 001°14'0 0.0
2017-Sep-20 16:29N 46°09' W 001°14'0 0.0
2017-Sep-20 15:59N 46°09' W 001°14'0 0.0
2017-Sep-20 15:29N 46°09' W 001°14'0 0.0
2017-Sep-20 14:59N 46°09' W 001°14'0 0.0
2017-Sep-20 13:59N 46°09' W 001°14'0 0.0
2017-Sep-20 13:26N 46°09' W 001°14'0 0.0
2017-Sep-20 12:59N 46°09' W 001°14'0 0.0
2017-Sep-20 12:29N 46°09' W 001°14'0 0.0
2017-Sep-20 11:56N 46°09' W 001°14'0 0.0
2017-Sep-20 11:29N 46°09' W 001°14'0 0.0
2017-Sep-20 10:59N 46°09' W 001°14'0 0.0
2017-Sep-20 10:29N 46°09' W 001°14'0 0.0
2017-Sep-20 09:59N 46°09' W 001°14'0 0.0
2017-Sep-20 09:29N 46°09' W 001°14'0 0.0
2017-Sep-20 08:59N 46°09' W 001°14'0 0.0
2017-Sep-20 08:29N 46°09' W 001°14'0 0.0
2017-Sep-20 07:59N 46°09' W 001°14'0 0.0
2017-Sep-20 07:29N 46°09' W 001°14'0 0.0
2017-Sep-20 06:59N 46°09' W 001°14'0 0.0
2017-Sep-20 06:31N 46°09' W 001°14'1 1.8
2017-Sep-20 06:01N 46°09' W 001°15'4 7.5
2017-Sep-20 05:30N 46°06' W 001°18'611.2
2017-Sep-20 05:01N 46°06' W 001°26'611.6
2017-Sep-20 04:31N 46°07' W 001°35'611.2
2017-Sep-20 03:57N 46°08' W 001°44'611.6
2017-Sep-20 03:29N 46°06' W 001°51'1811.9
2017-Sep-20 01:58N 45°60' W 002°16'911.9
2017-Sep-20 01:13N 45°57' W 002°28'211.9
2017-Sep-20 01:00N 45°56' W 002°31'612.0
2017-Sep-20 00:31N 45°54' W 002°39'1412.4
2017-Sep-19 23:24N 45°50' W 002°58'49110.1
2017-Sep-17 22:35N 39°27' W 009°57'112.1
2017-Sep-17 22:30N 39°26' W 009°57'612.3
2017-Sep-17 22:00N 39°20' W 009°57'612.1
2017-Sep-17 21:30N 39°14' W 009°57'612.0
2017-Sep-17 21:00N 39°08' W 009°57'611.9
2017-Sep-17 20:30N 39°02' W 009°57'611.7
2017-Sep-17 20:00N 38°56' W 009°57'611.8
2017-Sep-17 19:30N 38°50' W 009°57'611.9
2017-Sep-17 19:00N 38°44' W 009°57'611.2
2017-Sep-17 18:30N 38°39' W 009°56'611.2
2017-Sep-17 18:01N 38°33' W 009°54'611.3
2017-Sep-17 17:30N 38°28' W 009°53'611.4
2017-Sep-17 17:00N 38°22' W 009°51'611.5
2017-Sep-17 16:30N 38°16' W 009°49'611.6
2017-Sep-17 16:01N 38°11' W 009°48'611.7
2017-Sep-17 15:31N 38°05' W 009°46'711.5
2017-Sep-17 14:55N 37°59' W 009°44'611.5
2017-Sep-17 14:26N 37°53' W 009°43'511.0
2017-Sep-17 14:00N 37°49' W 009°41'610.7
2017-Sep-17 13:29N 37°43' W 009°40'811.0
2017-Sep-17 12:48N 37°36' W 009°37'6310.6
2017-Sep-17 06:48N 36°39' W 009°03'511.3
2017-Sep-17 06:20N 36°37' W 008°57'3011.8
2017-Sep-17 03:45N 36°30' W 008°20'812.6
2017-Sep-17 03:06N 36°28' W 008°10'111.9
2017-Sep-17 02:59N 36°27' W 008°08'1112.4
2017-Sep-17 02:07N 36°25' W 007°55'212.6
2017-Sep-17 01:56N 36°24' W 007°53'4811.5
2017-Sep-16 21:47N 36°41' W 006°57'2312.5
2017-Sep-16 19:56N 37°04' W 006°50'  
2017-Sep-13 11:16N 36°21' W 007°26'312.6
2017-Sep-13 11:00N 36°19' W 007°29'1411.0
2017-Sep-13 09:42N 36°16' W 007°47'512.3
2017-Sep-13 09:20N 36°17' W 007°52'412.1
2017-Sep-13 09:00N 36°18' W 007°57'612.3
2017-Sep-13 08:30N 36°20' W 008°05'612.4
2017-Sep-13 08:00N 36°21' W 008°12'912.5
2017-Sep-13 07:19N 36°23' W 008°22'412.7
2017-Sep-13 07:00N 36°24' W 008°27'612.8
2017-Sep-13 06:30N 36°26' W 008°35'612.5
2017-Sep-13 06:00N 36°27' W 008°42'612.6
2017-Sep-13 05:30N 36°29' W 008°50'612.4
2017-Sep-13 05:00N 36°30' W 008°58'612.4
2017-Sep-13 04:30N 36°32' W 009°05'611.9
2017-Sep-13 04:00N 36°33' W 009°12'611.4
2017-Sep-13 03:30N 36°35' W 009°19'612.0
2017-Sep-13 03:00N 36°40' W 009°24'612.4
2017-Sep-13 02:29N 36°44' W 009°30'611.9
2017-Sep-13 01:59N 36°49' W 009°34'612.5
2017-Sep-13 01:30N 36°55' W 009°35'612.6
2017-Sep-13 01:00N 37°01' W 009°37'712.4
2017-Sep-13 00:24N 37°09' W 009°39'1112.5
2017-Sep-12 23:32N 37°19' W 009°42'213.3
2017-Sep-12 23:25N 37°21' W 009°43'613.2
2017-Sep-12 22:59N 37°26' W 009°44'812.8
2017-Sep-12 22:23N 37°34' W 009°46'512.6
2017-Sep-12 22:00N 37°39' W 009°48'612.4
2017-Sep-12 21:30N 37°45' W 009°49'612.2
2017-Sep-12 21:00N 37°51' W 009°51'712.1
2017-Sep-12 20:26N 37°57' W 009°53'612.3
2017-Sep-12 19:55N 38°04' W 009°55'612.5
2017-Sep-12 19:25N 38°10' W 009°57'512.7
2017-Sep-12 19:00N 38°15' W 009°58'612.5
2017-Sep-12 18:30N 38°21' W 009°60'612.9
2017-Sep-12 18:00N 38°27' W 010°02'713.3
2017-Sep-12 17:30N 38°33' W 010°04'713.2
2017-Sep-12 17:00N 38°40' W 010°05'713.0
2017-Sep-12 16:30N 38°46' W 010°06'713.3
2017-Sep-12 16:00N 38°53' W 010°06'612.6
2017-Sep-12 15:30N 38°59' W 010°06'612.6
2017-Sep-12 15:00N 39°06' W 010°06'713.1
2017-Sep-12 14:30N 39°12' W 010°06'713.6
2017-Sep-12 14:00N 39°19' W 010°06'713.2
2017-Sep-12 13:30N 39°26' W 010°06'  

Dump ship's entire track history